sensor_id;sensor_type;location;lat;lon;timestamp;P1;durP1;ratioP1;P2;durP2;ratioP2
52964;SDS011;42923;53.220;6.528;2023-12-14T00:02:00;9.30;;;5.90;;
52964;SDS011;42923;53.220;6.528;2023-12-14T00:04:26;9.82;;;6.35;;
52964;SDS011;42923;53.220;6.528;2023-12-14T00:06:52;11.15;;;6.32;;
52964;SDS011;42923;53.220;6.528;2023-12-14T00:09:17;7.68;;;5.82;;
52964;SDS011;42923;53.220;6.528;2023-12-14T00:11:43;8.45;;;5.43;;
52964;SDS011;42923;53.220;6.528;2023-12-14T00:14:09;8.52;;;5.45;;
52964;SDS011;42923;53.220;6.528;2023-12-14T00:16:34;10.48;;;5.45;;
52964;SDS011;42923;53.220;6.528;2023-12-14T00:19:00;7.55;;;4.50;;
52964;SDS011;42923;53.220;6.528;2023-12-14T00:21:26;5.95;;;3.67;;
52964;SDS011;42923;53.220;6.528;2023-12-14T00:23:51;7.28;;;5.13;;
52964;SDS011;42923;53.220;6.528;2023-12-14T00:26:17;10.20;;;4.85;;
52964;SDS011;42923;53.220;6.528;2023-12-14T00:28:43;7.43;;;4.65;;
52964;SDS011;42923;53.220;6.528;2023-12-14T00:31:08;8.13;;;5.18;;
52964;SDS011;42923;53.220;6.528;2023-12-14T00:33:34;6.85;;;4.53;;
52964;SDS011;42923;53.220;6.528;2023-12-14T00:36:00;7.97;;;5.00;;
52964;SDS011;42923;53.220;6.528;2023-12-14T00:38:26;9.05;;;5.20;;
52964;SDS011;42923;53.220;6.528;2023-12-14T00:40:51;7.45;;;4.65;;
52964;SDS011;42923;53.220;6.528;2023-12-14T00:43:17;9.85;;;5.15;;
52964;SDS011;42923;53.220;6.528;2023-12-14T00:45:43;6.57;;;5.38;;
52964;SDS011;42923;53.220;6.528;2023-12-14T00:48:08;6.50;;;4.65;;
52964;SDS011;42923;53.220;6.528;2023-12-14T00:50:34;4.50;;;3.42;;
52964;SDS011;42923;53.220;6.528;2023-12-14T00:53:00;4.90;;;3.65;;
52964;SDS011;42923;53.220;6.528;2023-12-14T00:55:25;4.38;;;3.47;;
52964;SDS011;42923;53.220;6.528;2023-12-14T00:57:51;6.53;;;4.80;;
52964;SDS011;42923;53.220;6.528;2023-12-14T01:00:17;12.50;;;5.93;;
52964;SDS011;42923;53.220;6.528;2023-12-14T01:02:43;10.00;;;5.65;;
52964;SDS011;42923;53.220;6.528;2023-12-14T01:05:09;10.27;;;5.60;;
52964;SDS011;42923;53.220;6.528;2023-12-14T01:07:35;9.07;;;5.57;;
52964;SDS011;42923;53.220;6.528;2023-12-14T01:10:01;9.15;;;5.47;;
52964;SDS011;42923;53.220;6.528;2023-12-14T01:12:27;11.98;;;6.55;;
52964;SDS011;42923;53.220;6.528;2023-12-14T01:14:53;11.77;;;6.38;;
52964;SDS011;42923;53.220;6.528;2023-12-14T01:17:18;9.10;;;5.70;;
52964;SDS011;42923;53.220;6.528;2023-12-14T01:19:44;14.55;;;6.80;;
52964;SDS011;42923;53.220;6.528;2023-12-14T01:22:10;11.85;;;6.80;;
52964;SDS011;42923;53.220;6.528;2023-12-14T01:24:36;14.73;;;7.90;;
52964;SDS011;42923;53.220;6.528;2023-12-14T01:27:01;15.43;;;8.38;;
52964;SDS011;42923;53.220;6.528;2023-12-14T01:29:27;15.45;;;7.35;;
52964;SDS011;42923;53.220;6.528;2023-12-14T01:31:53;13.45;;;7.60;;
52964;SDS011;42923;53.220;6.528;2023-12-14T01:34:19;15.10;;;7.47;;
52964;SDS011;42923;53.220;6.528;2023-12-14T01:36:44;12.95;;;7.40;;
52964;SDS011;42923;53.220;6.528;2023-12-14T01:39:10;12.02;;;7.22;;
52964;SDS011;42923;53.220;6.528;2023-12-14T01:41:36;17.85;;;8.00;;
52964;SDS011;42923;53.220;6.528;2023-12-14T01:44:01;15.13;;;8.65;;
52964;SDS011;42923;53.220;6.528;2023-12-14T01:46:27;14.35;;;7.47;;
52964;SDS011;42923;53.220;6.528;2023-12-14T01:48:53;16.30;;;7.80;;
52964;SDS011;42923;53.220;6.528;2023-12-14T01:51:19;12.85;;;7.85;;
52964;SDS011;42923;53.220;6.528;2023-12-14T01:53:44;13.68;;;9.07;;
52964;SDS011;42923;53.220;6.528;2023-12-14T01:56:10;14.05;;;8.57;;
52964;SDS011;42923;53.220;6.528;2023-12-14T01:58:36;14.07;;;8.00;;
52964;SDS011;42923;53.220;6.528;2023-12-14T02:01:07;13.40;;;7.63;;
52964;SDS011;42923;53.220;6.528;2023-12-14T02:03:45;13.40;;;8.10;;
52964;SDS011;42923;53.220;6.528;2023-12-14T02:06:11;16.35;;;7.80;;
52964;SDS011;42923;53.220;6.528;2023-12-14T02:08:37;15.80;;;7.70;;
52964;SDS011;42923;53.220;6.528;2023-12-14T02:11:03;19.15;;;8.55;;
52964;SDS011;42923;53.220;6.528;2023-12-14T02:13:29;11.73;;;7.30;;
52964;SDS011;42923;53.220;6.528;2023-12-14T02:15:54;12.05;;;7.55;;
52964;SDS011;42923;53.220;6.528;2023-12-14T02:18:20;13.68;;;7.80;;
52964;SDS011;42923;53.220;6.528;2023-12-14T02:20:46;14.02;;;7.50;;
52964;SDS011;42923;53.220;6.528;2023-12-14T02:23:11;13.13;;;7.20;;
52964;SDS011;42923;53.220;6.528;2023-12-14T02:25:37;13.95;;;7.75;;
52964;SDS011;42923;53.220;6.528;2023-12-14T02:28:03;12.93;;;6.82;;
52964;SDS011;42923;53.220;6.528;2023-12-14T02:30:28;14.60;;;7.38;;
52964;SDS011;42923;53.220;6.528;2023-12-14T02:32:54;14.38;;;7.35;;
52964;SDS011;42923;53.220;6.528;2023-12-14T02:35:20;12.18;;;6.80;;
52964;SDS011;42923;53.220;6.528;2023-12-14T02:37:45;11.63;;;7.22;;
52964;SDS011;42923;53.220;6.528;2023-12-14T02:40:11;10.32;;;6.55;;
52964;SDS011;42923;53.220;6.528;2023-12-14T02:42:37;13.40;;;7.65;;
52964;SDS011;42923;53.220;6.528;2023-12-14T02:45:03;12.48;;;7.22;;
52964;SDS011;42923;53.220;6.528;2023-12-14T02:47:29;12.65;;;7.68;;
52964;SDS011;42923;53.220;6.528;2023-12-14T02:49:55;16.90;;;7.45;;
52964;SDS011;42923;53.220;6.528;2023-12-14T02:52:21;14.55;;;7.00;;
52964;SDS011;42923;53.220;6.528;2023-12-14T02:54:47;12.55;;;7.97;;
52964;SDS011;42923;53.220;6.528;2023-12-14T02:57:12;11.60;;;7.07;;
52964;SDS011;42923;53.220;6.528;2023-12-14T02:59:39;15.32;;;7.18;;
52964;SDS011;42923;53.220;6.528;2023-12-14T03:02:05;14.15;;;6.95;;
52964;SDS011;42923;53.220;6.528;2023-12-14T03:04:31;13.45;;;7.38;;
52964;SDS011;42923;53.220;6.528;2023-12-14T03:06:57;14.82;;;8.27;;
52964;SDS011;42923;53.220;6.528;2023-12-14T03:09:27;12.48;;;7.15;;
52964;SDS011;42923;53.220;6.528;2023-12-14T03:11:53;11.75;;;7.95;;
52964;SDS011;42923;53.220;6.528;2023-12-14T03:14:19;17.30;;;6.82;;
52964;SDS011;42923;53.220;6.528;2023-12-14T03:16:45;13.38;;;7.85;;
52964;SDS011;42923;53.220;6.528;2023-12-14T03:19:10;14.30;;;7.43;;
52964;SDS011;42923;53.220;6.528;2023-12-14T03:21:36;12.52;;;7.80;;
52964;SDS011;42923;53.220;6.528;2023-12-14T03:24:02;16.73;;;8.40;;
52964;SDS011;42923;53.220;6.528;2023-12-14T03:26:28;15.43;;;7.00;;
52964;SDS011;42923;53.220;6.528;2023-12-14T03:28:53;11.90;;;7.75;;
52964;SDS011;42923;53.220;6.528;2023-12-14T03:31:19;13.27;;;7.50;;
52964;SDS011;42923;53.220;6.528;2023-12-14T03:33:45;13.18;;;7.38;;
52964;SDS011;42923;53.220;6.528;2023-12-14T03:36:10;17.00;;;8.05;;
52964;SDS011;42923;53.220;6.528;2023-12-14T03:38:36;15.77;;;7.40;;
52964;SDS011;42923;53.220;6.528;2023-12-14T03:41:02;18.48;;;8.40;;
52964;SDS011;42923;53.220;6.528;2023-12-14T03:43:28;18.30;;;9.98;;
52964;SDS011;42923;53.220;6.528;2023-12-14T03:45:53;10.43;;;7.00;;
52964;SDS011;42923;53.220;6.528;2023-12-14T03:48:19;11.52;;;8.18;;
52964;SDS011;42923;53.220;6.528;2023-12-14T03:50:45;16.52;;;8.25;;
52964;SDS011;42923;53.220;6.528;2023-12-14T03:53:10;15.00;;;8.20;;
52964;SDS011;42923;53.220;6.528;2023-12-14T03:55:36;17.45;;;9.63;;
52964;SDS011;42923;53.220;6.528;2023-12-14T03:58:02;14.35;;;8.18;;
52964;SDS011;42923;53.220;6.528;2023-12-14T04:00:27;16.85;;;8.30;;
52964;SDS011;42923;53.220;6.528;2023-12-14T04:02:53;21.00;;;9.60;;
52964;SDS011;42923;53.220;6.528;2023-12-14T04:05:19;15.27;;;10.00;;
52964;SDS011;42923;53.220;6.528;2023-12-14T04:07:45;14.55;;;8.55;;
52964;SDS011;42923;53.220;6.528;2023-12-14T04:10:11;15.45;;;9.10;;
52964;SDS011;42923;53.220;6.528;2023-12-14T04:12:37;15.57;;;8.02;;
52964;SDS011;42923;53.220;6.528;2023-12-14T04:15:04;16.77;;;8.98;;
52964;SDS011;42923;53.220;6.528;2023-12-14T04:17:31;18.60;;;8.52;;
52964;SDS011;42923;53.220;6.528;2023-12-14T04:19:57;17.15;;;8.27;;
52964;SDS011;42923;53.220;6.528;2023-12-14T04:22:23;16.85;;;9.13;;
52964;SDS011;42923;53.220;6.528;2023-12-14T04:24:52;22.13;;;8.65;;
52964;SDS011;42923;53.220;6.528;2023-12-14T04:27:18;17.50;;;9.10;;
52964;SDS011;42923;53.220;6.528;2023-12-14T04:29:44;14.55;;;9.00;;
52964;SDS011;42923;53.220;6.528;2023-12-14T04:32:10;18.67;;;8.77;;
52964;SDS011;42923;53.220;6.528;2023-12-14T04:34:36;17.48;;;9.07;;
52964;SDS011;42923;53.220;6.528;2023-12-14T04:37:02;17.23;;;9.68;;
52964;SDS011;42923;53.220;6.528;2023-12-14T04:39:28;18.92;;;9.13;;
52964;SDS011;42923;53.220;6.528;2023-12-14T04:41:53;16.15;;;9.55;;
52964;SDS011;42923;53.220;6.528;2023-12-14T04:44:19;17.85;;;9.57;;
52964;SDS011;42923;53.220;6.528;2023-12-14T04:46:46;18.98;;;8.65;;
52964;SDS011;42923;53.220;6.528;2023-12-14T04:49:13;20.42;;;10.02;;
52964;SDS011;42923;53.220;6.528;2023-12-14T04:51:38;17.83;;;9.35;;
52964;SDS011;42923;53.220;6.528;2023-12-14T04:54:04;18.52;;;9.52;;
52964;SDS011;42923;53.220;6.528;2023-12-14T04:56:30;21.55;;;9.32;;
52964;SDS011;42923;53.220;6.528;2023-12-14T04:58:56;14.27;;;9.05;;
52964;SDS011;42923;53.220;6.528;2023-12-14T05:01:22;17.58;;;9.80;;
52964;SDS011;42923;53.220;6.528;2023-12-14T05:03:47;19.90;;;10.15;;
52964;SDS011;42923;53.220;6.528;2023-12-14T05:06:13;15.65;;;8.35;;
52964;SDS011;42923;53.220;6.528;2023-12-14T05:08:39;16.42;;;8.20;;
52964;SDS011;42923;53.220;6.528;2023-12-14T05:11:04;17.40;;;10.45;;
52964;SDS011;42923;53.220;6.528;2023-12-14T05:13:30;18.10;;;9.05;;
52964;SDS011;42923;53.220;6.528;2023-12-14T05:15:56;16.80;;;9.02;;
52964;SDS011;42923;53.220;6.528;2023-12-14T05:18:26;21.33;;;9.48;;
52964;SDS011;42923;53.220;6.528;2023-12-14T05:20:52;17.38;;;9.50;;
52964;SDS011;42923;53.220;6.528;2023-12-14T05:23:17;15.15;;;8.43;;
52964;SDS011;42923;53.220;6.528;2023-12-14T05:25:44;15.52;;;9.80;;
52964;SDS011;42923;53.220;6.528;2023-12-14T05:28:10;14.73;;;8.75;;
52964;SDS011;42923;53.220;6.528;2023-12-14T05:30:36;16.58;;;9.52;;
52964;SDS011;42923;53.220;6.528;2023-12-14T05:33:01;22.45;;;10.75;;
52964;SDS011;42923;53.220;6.528;2023-12-14T05:35:27;17.67;;;9.57;;
52964;SDS011;42923;53.220;6.528;2023-12-14T05:37:53;19.95;;;9.85;;
52964;SDS011;42923;53.220;6.528;2023-12-14T05:40:19;18.85;;;8.35;;
52964;SDS011;42923;53.220;6.528;2023-12-14T05:42:44;17.40;;;9.98;;
52964;SDS011;42923;53.220;6.528;2023-12-14T05:45:10;18.60;;;9.57;;
52964;SDS011;42923;53.220;6.528;2023-12-14T05:47:36;21.67;;;10.27;;
52964;SDS011;42923;53.220;6.528;2023-12-14T05:50:03;17.90;;;9.18;;
52964;SDS011;42923;53.220;6.528;2023-12-14T05:52:30;19.80;;;9.75;;
52964;SDS011;42923;53.220;6.528;2023-12-14T05:54:55;20.65;;;10.07;;
52964;SDS011;42923;53.220;6.528;2023-12-14T05:57:21;14.25;;;8.55;;
52964;SDS011;42923;53.220;6.528;2023-12-14T05:59:47;16.88;;;8.77;;
52964;SDS011;42923;53.220;6.528;2023-12-14T06:02:15;16.20;;;10.13;;
52964;SDS011;42923;53.220;6.528;2023-12-14T06:04:40;20.50;;;11.43;;
52964;SDS011;42923;53.220;6.528;2023-12-14T06:07:06;21.95;;;10.18;;
52964;SDS011;42923;53.220;6.528;2023-12-14T06:09:32;18.15;;;10.10;;
52964;SDS011;42923;53.220;6.528;2023-12-14T06:12:02;17.50;;;9.77;;
52964;SDS011;42923;53.220;6.528;2023-12-14T06:14:28;17.38;;;9.50;;
52964;SDS011;42923;53.220;6.528;2023-12-14T06:16:54;18.23;;;10.43;;
52964;SDS011;42923;53.220;6.528;2023-12-14T06:19:20;20.15;;;10.65;;
52964;SDS011;42923;53.220;6.528;2023-12-14T06:21:47;17.48;;;9.73;;
52964;SDS011;42923;53.220;6.528;2023-12-14T06:24:13;16.75;;;10.15;;
52964;SDS011;42923;53.220;6.528;2023-12-14T06:26:42;15.18;;;9.35;;
52964;SDS011;42923;53.220;6.528;2023-12-14T06:29:09;19.00;;;9.90;;
52964;SDS011;42923;53.220;6.528;2023-12-14T06:31:36;16.02;;;9.63;;
52964;SDS011;42923;53.220;6.528;2023-12-14T06:34:02;18.83;;;8.98;;
52964;SDS011;42923;53.220;6.528;2023-12-14T06:36:35;14.65;;;9.50;;
52964;SDS011;42923;53.220;6.528;2023-12-14T06:39:01;21.10;;;9.48;;
52964;SDS011;42923;53.220;6.528;2023-12-14T06:41:28;15.57;;;9.48;;
52964;SDS011;42923;53.220;6.528;2023-12-14T06:43:54;15.27;;;8.88;;
52964;SDS011;42923;53.220;6.528;2023-12-14T06:46:21;17.75;;;9.57;;
52964;SDS011;42923;53.220;6.528;2023-12-14T06:48:47;17.10;;;9.82;;
52964;SDS011;42923;53.220;6.528;2023-12-14T06:51:14;19.92;;;9.60;;
52964;SDS011;42923;53.220;6.528;2023-12-14T06:53:41;17.67;;;9.80;;
52964;SDS011;42923;53.220;6.528;2023-12-14T06:56:08;18.92;;;9.57;;
52964;SDS011;42923;53.220;6.528;2023-12-14T06:58:36;19.05;;;10.73;;
52964;SDS011;42923;53.220;6.528;2023-12-14T07:01:03;19.88;;;9.40;;
52964;SDS011;42923;53.220;6.528;2023-12-14T07:03:30;18.92;;;10.00;;
52964;SDS011;42923;53.220;6.528;2023-12-14T07:05:55;16.85;;;9.55;;
52964;SDS011;42923;53.220;6.528;2023-12-14T07:08:21;18.08;;;10.85;;
52964;SDS011;42923;53.220;6.528;2023-12-14T07:10:46;19.65;;;10.13;;
52964;SDS011;42923;53.220;6.528;2023-12-14T07:13:12;15.40;;;9.85;;
52964;SDS011;42923;53.220;6.528;2023-12-14T07:15:38;18.65;;;9.68;;
52964;SDS011;42923;53.220;6.528;2023-12-14T07:18:03;23.88;;;10.05;;
52964;SDS011;42923;53.220;6.528;2023-12-14T07:20:29;17.50;;;9.95;;
52964;SDS011;42923;53.220;6.528;2023-12-14T07:22:55;16.15;;;9.88;;
52964;SDS011;42923;53.220;6.528;2023-12-14T07:25:20;18.38;;;10.70;;
52964;SDS011;42923;53.220;6.528;2023-12-14T07:27:46;20.38;;;10.98;;
52964;SDS011;42923;53.220;6.528;2023-12-14T07:30:12;19.92;;;10.25;;
52964;SDS011;42923;53.220;6.528;2023-12-14T07:32:38;19.20;;;11.18;;
52964;SDS011;42923;53.220;6.528;2023-12-14T07:35:04;17.67;;;9.80;;
52964;SDS011;42923;53.220;6.528;2023-12-14T07:37:30;19.85;;;10.43;;
52964;SDS011;42923;53.220;6.528;2023-12-14T07:39:56;25.17;;;11.75;;
52964;SDS011;42923;53.220;6.528;2023-12-14T07:42:23;24.90;;;11.95;;
52964;SDS011;42923;53.220;6.528;2023-12-14T07:44:49;22.58;;;10.60;;
52964;SDS011;42923;53.220;6.528;2023-12-14T07:47:15;22.63;;;11.43;;
52964;SDS011;42923;53.220;6.528;2023-12-14T07:49:41;27.65;;;13.50;;
52964;SDS011;42923;53.220;6.528;2023-12-14T07:52:06;16.88;;;11.07;;
52964;SDS011;42923;53.220;6.528;2023-12-14T07:54:32;22.38;;;11.00;;
52964;SDS011;42923;53.220;6.528;2023-12-14T07:56:58;21.75;;;11.07;;
52964;SDS011;42923;53.220;6.528;2023-12-14T07:59:23;17.75;;;10.48;;
52964;SDS011;42923;53.220;6.528;2023-12-14T08:01:49;19.25;;;10.45;;
52964;SDS011;42923;53.220;6.528;2023-12-14T08:04:15;24.08;;;12.00;;
52964;SDS011;42923;53.220;6.528;2023-12-14T08:06:40;24.23;;;11.88;;
52964;SDS011;42923;53.220;6.528;2023-12-14T08:09:07;21.95;;;11.95;;
52964;SDS011;42923;53.220;6.528;2023-12-14T08:11:33;23.05;;;11.65;;
52964;SDS011;42923;53.220;6.528;2023-12-14T08:13:58;23.05;;;12.20;;
52964;SDS011;42923;53.220;6.528;2023-12-14T08:16:24;21.42;;;11.70;;
52964;SDS011;42923;53.220;6.528;2023-12-14T08:18:50;26.27;;;11.57;;
52964;SDS011;42923;53.220;6.528;2023-12-14T08:21:16;18.48;;;11.10;;
52964;SDS011;42923;53.220;6.528;2023-12-14T08:23:43;24.92;;;11.55;;
52964;SDS011;42923;53.220;6.528;2023-12-14T08:26:08;23.42;;;11.77;;
52964;SDS011;42923;53.220;6.528;2023-12-14T08:28:36;20.65;;;11.57;;
52964;SDS011;42923;53.220;6.528;2023-12-14T08:31:02;18.20;;;10.70;;
52964;SDS011;42923;53.220;6.528;2023-12-14T08:33:29;22.77;;;12.02;;
52964;SDS011;42923;53.220;6.528;2023-12-14T08:35:55;21.67;;;12.73;;
52964;SDS011;42923;53.220;6.528;2023-12-14T08:38:21;23.65;;;12.45;;
52964;SDS011;42923;53.220;6.528;2023-12-14T08:40:47;19.77;;;11.05;;
52964;SDS011;42923;53.220;6.528;2023-12-14T08:43:12;24.80;;;11.75;;
52964;SDS011;42923;53.220;6.528;2023-12-14T08:45:38;21.08;;;11.55;;
52964;SDS011;42923;53.220;6.528;2023-12-14T08:48:04;26.40;;;11.40;;
52964;SDS011;42923;53.220;6.528;2023-12-14T08:50:30;17.85;;;9.85;;
52964;SDS011;42923;53.220;6.528;2023-12-14T08:52:56;24.42;;;11.52;;
52964;SDS011;42923;53.220;6.528;2023-12-14T08:55:24;19.95;;;11.60;;
52964;SDS011;42923;53.220;6.528;2023-12-14T08:57:50;25.67;;;12.75;;
52964;SDS011;42923;53.220;6.528;2023-12-14T09:00:16;29.45;;;12.48;;
52964;SDS011;42923;53.220;6.528;2023-12-14T09:02:43;22.13;;;11.05;;
52964;SDS011;42923;53.220;6.528;2023-12-14T09:05:14;17.50;;;10.68;;
52964;SDS011;42923;53.220;6.528;2023-12-14T09:07:41;23.02;;;11.40;;
52964;SDS011;42923;53.220;6.528;2023-12-14T09:10:07;21.55;;;11.65;;
52964;SDS011;42923;53.220;6.528;2023-12-14T09:12:34;19.55;;;11.13;;
52964;SDS011;42923;53.220;6.528;2023-12-14T09:15:00;22.05;;;11.63;;
52964;SDS011;42923;53.220;6.528;2023-12-14T09:17:26;17.30;;;10.70;;
52964;SDS011;42923;53.220;6.528;2023-12-14T09:19:58;19.27;;;11.30;;
52964;SDS011;42923;53.220;6.528;2023-12-14T09:22:24;28.85;;;10.43;;
52964;SDS011;42923;53.220;6.528;2023-12-14T09:24:50;20.52;;;11.40;;
52964;SDS011;42923;53.220;6.528;2023-12-14T09:27:16;22.30;;;11.25;;
52964;SDS011;42923;53.220;6.528;2023-12-14T09:29:42;19.77;;;11.02;;
52964;SDS011;42923;53.220;6.528;2023-12-14T09:32:08;18.98;;;11.88;;
52964;SDS011;42923;53.220;6.528;2023-12-14T09:34:34;26.67;;;11.55;;
52964;SDS011;42923;53.220;6.528;2023-12-14T09:37:00;24.75;;;10.95;;
52964;SDS011;42923;53.220;6.528;2023-12-14T09:39:26;19.70;;;11.15;;
52964;SDS011;42923;53.220;6.528;2023-12-14T09:42:00;17.73;;;10.13;;
52964;SDS011;42923;53.220;6.528;2023-12-14T09:44:30;18.23;;;11.25;;
52964;SDS011;42923;53.220;6.528;2023-12-14T09:46:57;24.92;;;11.43;;
52964;SDS011;42923;53.220;6.528;2023-12-14T09:49:29;20.10;;;10.80;;
52964;SDS011;42923;53.220;6.528;2023-12-14T09:51:58;22.95;;;10.98;;
52964;SDS011;42923;53.220;6.528;2023-12-14T09:54:27;21.13;;;11.40;;
52964;SDS011;42923;53.220;6.528;2023-12-14T09:56:53;24.35;;;10.85;;
52964;SDS011;42923;53.220;6.528;2023-12-14T09:59:19;17.48;;;10.52;;
52964;SDS011;42923;53.220;6.528;2023-12-14T10:01:45;22.50;;;11.55;;
52964;SDS011;42923;53.220;6.528;2023-12-14T10:04:12;21.45;;;11.13;;
52964;SDS011;42923;53.220;6.528;2023-12-14T10:06:40;21.52;;;11.25;;
52964;SDS011;42923;53.220;6.528;2023-12-14T10:09:07;21.38;;;11.05;;
52964;SDS011;42923;53.220;6.528;2023-12-14T10:11:37;19.27;;;11.10;;
52964;SDS011;42923;53.220;6.528;2023-12-14T10:14:17;20.25;;;11.65;;
52964;SDS011;42923;53.220;6.528;2023-12-14T10:16:43;20.08;;;11.02;;
52964;SDS011;42923;53.220;6.528;2023-12-14T10:19:09;19.77;;;11.15;;
52964;SDS011;42923;53.220;6.528;2023-12-14T10:21:34;24.15;;;11.93;;
52964;SDS011;42923;53.220;6.528;2023-12-14T10:24:01;21.15;;;11.13;;
52964;SDS011;42923;53.220;6.528;2023-12-14T10:26:27;22.65;;;10.80;;
52964;SDS011;42923;53.220;6.528;2023-12-14T10:28:53;18.67;;;11.65;;
52964;SDS011;42923;53.220;6.528;2023-12-14T10:31:19;21.83;;;11.27;;
52964;SDS011;42923;53.220;6.528;2023-12-14T10:33:45;18.73;;;11.15;;
52964;SDS011;42923;53.220;6.528;2023-12-14T10:36:12;17.73;;;12.45;;
52964;SDS011;42923;53.220;6.528;2023-12-14T10:38:39;19.88;;;11.77;;
52964;SDS011;42923;53.220;6.528;2023-12-14T10:41:08;21.30;;;12.60;;
52964;SDS011;42923;53.220;6.528;2023-12-14T10:43:36;19.17;;;11.40;;
52964;SDS011;42923;53.220;6.528;2023-12-14T10:46:03;18.73;;;10.52;;
52964;SDS011;42923;53.220;6.528;2023-12-14T10:48:35;19.13;;;10.95;;
52964;SDS011;42923;53.220;6.528;2023-12-14T10:51:06;18.85;;;12.35;;
52964;SDS011;42923;53.220;6.528;2023-12-14T10:53:33;18.80;;;10.20;;
52964;SDS011;42923;53.220;6.528;2023-12-14T10:56:00;17.73;;;10.38;;
52964;SDS011;42923;53.220;6.528;2023-12-14T11:01:32;19.00;;;10.85;;
52964;SDS011;42923;53.220;6.528;2023-12-14T11:03:58;18.65;;;10.60;;
52964;SDS011;42923;53.220;6.528;2023-12-14T11:08:52;19.55;;;10.70;;
52964;SDS011;42923;53.220;6.528;2023-12-14T11:11:20;16.83;;;10.60;;
52964;SDS011;42923;53.220;6.528;2023-12-14T11:13:50;15.70;;;10.77;;
52964;SDS011;42923;53.220;6.528;2023-12-14T11:16:21;20.10;;;10.68;;
52964;SDS011;42923;53.220;6.528;2023-12-14T11:19:23;18.63;;;10.55;;
52964;SDS011;42923;53.220;6.528;2023-12-14T11:21:43;20.63;;;10.48;;
52964;SDS011;42923;53.220;6.528;2023-12-14T11:24:09;18.65;;;10.50;;
52964;SDS011;42923;53.220;6.528;2023-12-14T11:26:36;18.83;;;10.15;;
52964;SDS011;42923;53.220;6.528;2023-12-14T11:29:01;22.60;;;10.80;;
52964;SDS011;42923;53.220;6.528;2023-12-14T11:31:27;15.57;;;9.30;;
52964;SDS011;42923;53.220;6.528;2023-12-14T11:33:54;16.80;;;9.73;;
52964;SDS011;42923;53.220;6.528;2023-12-14T11:36:21;17.45;;;9.35;;
52964;SDS011;42923;53.220;6.528;2023-12-14T11:38:50;23.08;;;10.60;;
52964;SDS011;42923;53.220;6.528;2023-12-14T11:41:16;16.38;;;9.50;;
52964;SDS011;42923;53.220;6.528;2023-12-14T11:43:42;17.42;;;10.57;;
52964;SDS011;42923;53.220;6.528;2023-12-14T11:46:09;12.63;;;9.07;;
52964;SDS011;42923;53.220;6.528;2023-12-14T11:48:35;13.95;;;9.77;;
52964;SDS011;42923;53.220;6.528;2023-12-14T11:51:01;13.20;;;8.70;;
52964;SDS011;42923;53.220;6.528;2023-12-14T11:53:27;16.00;;;9.13;;
52964;SDS011;42923;53.220;6.528;2023-12-14T11:55:54;24.15;;;10.40;;
52964;SDS011;42923;53.220;6.528;2023-12-14T11:58:20;17.40;;;9.85;;
52964;SDS011;42923;53.220;6.528;2023-12-14T12:00:45;19.65;;;11.20;;
52964;SDS011;42923;53.220;6.528;2023-12-14T12:03:13;13.63;;;9.75;;
52964;SDS011;42923;53.220;6.528;2023-12-14T12:05:47;21.30;;;11.43;;
52964;SDS011;42923;53.220;6.528;2023-12-14T12:08:15;18.27;;;10.07;;
52964;SDS011;42923;53.220;6.528;2023-12-14T12:10:44;14.90;;;9.02;;
52964;SDS011;42923;53.220;6.528;2023-12-14T12:13:17;17.58;;;9.55;;
52964;SDS011;42923;53.220;6.528;2023-12-14T12:15:44;16.58;;;10.07;;
52964;SDS011;42923;53.220;6.528;2023-12-14T12:18:11;18.13;;;10.07;;
52964;SDS011;42923;53.220;6.528;2023-12-14T12:20:38;14.40;;;9.85;;
52964;SDS011;42923;53.220;6.528;2023-12-14T12:23:03;13.70;;;10.18;;
52964;SDS011;42923;53.220;6.528;2023-12-14T12:25:29;14.25;;;9.50;;
52964;SDS011;42923;53.220;6.528;2023-12-14T12:27:56;14.95;;;9.40;;
52964;SDS011;42923;53.220;6.528;2023-12-14T12:30:22;17.42;;;10.52;;
52964;SDS011;42923;53.220;6.528;2023-12-14T12:32:48;18.98;;;9.95;;
52964;SDS011;42923;53.220;6.528;2023-12-14T12:35:17;16.40;;;9.55;;
52964;SDS011;42923;53.220;6.528;2023-12-14T12:37:43;13.80;;;8.88;;
52964;SDS011;42923;53.220;6.528;2023-12-14T12:40:09;17.13;;;10.43;;
52964;SDS011;42923;53.220;6.528;2023-12-14T12:42:36;21.65;;;9.45;;
52964;SDS011;42923;53.220;6.528;2023-12-14T12:45:02;16.15;;;10.52;;
52964;SDS011;42923;53.220;6.528;2023-12-14T12:47:29;17.65;;;9.60;;
52964;SDS011;42923;53.220;6.528;2023-12-14T12:49:55;14.63;;;9.18;;
52964;SDS011;42923;53.220;6.528;2023-12-14T12:52:21;15.82;;;10.10;;
52964;SDS011;42923;53.220;6.528;2023-12-14T12:54:46;15.27;;;10.55;;
52964;SDS011;42923;53.220;6.528;2023-12-14T12:57:12;17.73;;;10.50;;
52964;SDS011;42923;53.220;6.528;2023-12-14T12:59:38;15.77;;;9.10;;
52964;SDS011;42923;53.220;6.528;2023-12-14T13:02:03;19.42;;;10.35;;
52964;SDS011;42923;53.220;6.528;2023-12-14T13:04:29;16.58;;;10.40;;
52964;SDS011;42923;53.220;6.528;2023-12-14T13:06:58;14.35;;;9.15;;
52964;SDS011;42923;53.220;6.528;2023-12-14T13:09:27;13.68;;;9.95;;
52964;SDS011;42923;53.220;6.528;2023-12-14T13:11:53;17.90;;;9.50;;
52964;SDS011;42923;53.220;6.528;2023-12-14T13:14:18;16.42;;;9.48;;
52964;SDS011;42923;53.220;6.528;2023-12-14T13:16:44;15.68;;;9.80;;
52964;SDS011;42923;53.220;6.528;2023-12-14T13:19:09;14.48;;;9.13;;
52964;SDS011;42923;53.220;6.528;2023-12-14T13:21:35;18.20;;;9.95;;
52964;SDS011;42923;53.220;6.528;2023-12-14T13:24:01;17.48;;;10.40;;
52964;SDS011;42923;53.220;6.528;2023-12-14T13:26:28;24.40;;;10.30;;
52964;SDS011;42923;53.220;6.528;2023-12-14T13:28:53;17.38;;;9.50;;
52964;SDS011;42923;53.220;6.528;2023-12-14T13:31:19;17.52;;;9.23;;
52964;SDS011;42923;53.220;6.528;2023-12-14T13:33:46;18.40;;;9.80;;
52964;SDS011;42923;53.220;6.528;2023-12-14T13:36:13;20.08;;;9.10;;
52964;SDS011;42923;53.220;6.528;2023-12-14T13:38:39;21.13;;;10.43;;
52964;SDS011;42923;53.220;6.528;2023-12-14T13:41:06;16.98;;;10.07;;
52964;SDS011;42923;53.220;6.528;2023-12-14T13:43:32;14.18;;;8.90;;
52964;SDS011;42923;53.220;6.528;2023-12-14T13:45:58;13.23;;;9.23;;
52964;SDS011;42923;53.220;6.528;2023-12-14T13:48:24;18.52;;;10.57;;
52964;SDS011;42923;53.220;6.528;2023-12-14T13:50:51;14.02;;;9.57;;
52964;SDS011;42923;53.220;6.528;2023-12-14T13:53:17;18.27;;;10.02;;
52964;SDS011;42923;53.220;6.528;2023-12-14T13:55:43;16.25;;;10.10;;
52964;SDS011;42923;53.220;6.528;2023-12-14T13:58:08;16.48;;;9.82;;
52964;SDS011;42923;53.220;6.528;2023-12-14T14:00:34;24.90;;;10.70;;
52964;SDS011;42923;53.220;6.528;2023-12-14T14:03:01;17.63;;;10.50;;
52964;SDS011;42923;53.220;6.528;2023-12-14T14:05:28;17.85;;;10.20;;
52964;SDS011;42923;53.220;6.528;2023-12-14T14:07:54;18.33;;;11.45;;
52964;SDS011;42923;53.220;6.528;2023-12-14T14:10:21;16.60;;;9.45;;
52964;SDS011;42923;53.220;6.528;2023-12-14T14:12:46;23.65;;;8.68;;
52964;SDS011;42923;53.220;6.528;2023-12-14T14:15:12;13.52;;;8.27;;
52964;SDS011;42923;53.220;6.528;2023-12-14T14:17:38;13.65;;;9.18;;
52964;SDS011;42923;53.220;6.528;2023-12-14T14:20:04;19.30;;;9.43;;
52964;SDS011;42923;53.220;6.528;2023-12-14T14:22:31;10.60;;;8.05;;
52964;SDS011;42923;53.220;6.528;2023-12-14T14:24:57;16.48;;;8.68;;
52964;SDS011;42923;53.220;6.528;2023-12-14T14:27:23;14.07;;;9.52;;
52964;SDS011;42923;53.220;6.528;2023-12-14T14:29:49;13.50;;;9.05;;
52964;SDS011;42923;53.220;6.528;2023-12-14T14:32:15;19.23;;;9.90;;